sensor_id;sensor_type;location;lat;lon;timestamp;P1;durP1;ratioP1;P2;durP2;ratioP2
61127;SDS011;47013;42.664;23.242;2023-09-19T00:00:41;0.35;;;0.10;;
61127;SDS011;47013;42.664;23.242;2023-09-19T00:03:08;0.17;;;0.17;;
61127;SDS011;47013;42.664;23.242;2023-09-19T00:05:34;0.20;;;0.20;;
61127;SDS011;47013;42.664;23.242;2023-09-19T00:08:01;0.47;;;0.30;;
61127;SDS011;47013;42.664;23.242;2023-09-19T00:10:30;0.10;;;0.10;;
61127;SDS011;47013;42.664;23.242;2023-09-19T00:12:59;0.43;;;0.40;;
61127;SDS011;47013;42.664;23.242;2023-09-19T00:15:27;0.52;;;0.35;;
61127;SDS011;47013;42.664;23.242;2023-09-19T00:17:56;0.35;;;0.25;;
61127;SDS011;47013;42.664;23.242;2023-09-19T00:20:22;0.65;;;0.45;;
61127;SDS011;47013;42.664;23.242;2023-09-19T00:22:49;0.40;;;0.30;;
61127;SDS011;47013;42.664;23.242;2023-09-19T00:25:17;0.28;;;0.28;;
61127;SDS011;47013;42.664;23.242;2023-09-19T00:27:42;0.20;;;0.20;;
61127;SDS011;47013;42.664;23.242;2023-09-19T00:30:10;0.10;;;0.10;;
61127;SDS011;47013;42.664;23.242;2023-09-19T00:32:45;0.85;;;0.68;;
61127;SDS011;47013;42.664;23.242;2023-09-19T00:35:12;1.10;;;0.68;;
61127;SDS011;47013;42.664;23.242;2023-09-19T00:37:40;0.57;;;0.57;;
61127;SDS011;47013;42.664;23.242;2023-09-19T00:40:06;0.20;;;0.20;;
61127;SDS011;47013;42.664;23.242;2023-09-19T00:42:37;0.80;;;0.52;;
61127;SDS011;47013;42.664;23.242;2023-09-19T00:45:06;0.30;;;0.30;;
61127;SDS011;47013;42.664;23.242;2023-09-19T00:47:34;0.13;;;0.13;;
61127;SDS011;47013;42.664;23.242;2023-09-19T00:50:00;0.30;;;0.30;;
61127;SDS011;47013;42.664;23.242;2023-09-19T00:52:28;0.43;;;0.38;;
61127;SDS011;47013;42.664;23.242;2023-09-19T00:54:53;0.38;;;0.32;;
61127;SDS011;47013;42.664;23.242;2023-09-19T00:57:19;0.52;;;0.45;;
61127;SDS011;47013;42.664;23.242;2023-09-19T00:59:47;0.20;;;0.20;;
61127;SDS011;47013;42.664;23.242;2023-09-19T01:02:15;0.10;;;0.10;;
61127;SDS011;47013;42.664;23.242;2023-09-19T01:04:41;0.10;;;0.10;;
61127;SDS011;47013;42.664;23.242;2023-09-19T01:07:07;0.65;;;0.50;;
61127;SDS011;47013;42.664;23.242;2023-09-19T01:09:33;0.50;;;0.40;;
61127;SDS011;47013;42.664;23.242;2023-09-19T01:12:01;0.10;;;0.10;;
61127;SDS011;47013;42.664;23.242;2023-09-19T01:17:18;0.00;;;0.00;;
61127;SDS011;47013;42.664;23.242;2023-09-19T01:20:11;0.10;;;0.10;;
61127;SDS011;47013;42.664;23.242;2023-09-19T01:22:56;0.25;;;0.25;;
61127;SDS011;47013;42.664;23.242;2023-09-19T01:28:34;0.30;;;0.28;;
61127;SDS011;47013;42.664;23.242;2023-09-19T01:31:06;1.00;;;0.63;;
61127;SDS011;47013;42.664;23.242;2023-09-19T01:36:32;0.52;;;0.32;;
61127;SDS011;47013;42.664;23.242;2023-09-19T01:39:00;0.45;;;0.28;;
61127;SDS011;47013;42.664;23.242;2023-09-19T01:41:38;0.22;;;0.17;;
61127;SDS011;47013;42.664;23.242;2023-09-19T01:44:17;0.52;;;0.35;;
61127;SDS011;47013;42.664;23.242;2023-09-19T01:46:58;0.63;;;0.40;;
61127;SDS011;47013;42.664;23.242;2023-09-19T01:49:33;2.90;;;0.95;;
61127;SDS011;47013;42.664;23.242;2023-09-19T01:52:11;0.65;;;0.45;;
61127;SDS011;47013;42.664;23.242;2023-09-19T01:54:51;0.32;;;0.20;;
61127;SDS011;47013;42.664;23.242;2023-09-19T01:57:27;0.32;;;0.22;;
61127;SDS011;47013;42.664;23.242;2023-09-19T01:59:59;0.10;;;0.10;;
61127;SDS011;47013;42.664;23.242;2023-09-19T02:02:33;0.00;;;0.00;;
61127;SDS011;47013;42.664;23.242;2023-09-19T02:05:00;0.47;;;0.28;;
61127;SDS011;47013;42.664;23.242;2023-09-19T02:07:26;0.22;;;0.22;;
61127;SDS011;47013;42.664;23.242;2023-09-19T02:09:52;0.30;;;0.30;;
61127;SDS011;47013;42.664;23.242;2023-09-19T02:12:17;0.22;;;0.22;;
61127;SDS011;47013;42.664;23.242;2023-09-19T02:14:43;0.28;;;0.28;;
61127;SDS011;47013;42.664;23.242;2023-09-19T02:17:08;0.20;;;0.20;;
61127;SDS011;47013;42.664;23.242;2023-09-19T02:19:36;0.10;;;0.10;;
61127;SDS011;47013;42.664;23.242;2023-09-19T02:22:03;0.10;;;0.10;;
61127;SDS011;47013;42.664;23.242;2023-09-19T02:24:38;0.30;;;0.30;;
61127;SDS011;47013;42.664;23.242;2023-09-19T02:27:04;0.77;;;0.32;;
61127;SDS011;47013;42.664;23.242;2023-09-19T02:29:30;0.15;;;0.15;;
61127;SDS011;47013;42.664;23.242;2023-09-19T02:31:55;3.72;;;0.75;;
61127;SDS011;47013;42.664;23.242;2023-09-19T02:34:21;1.05;;;0.85;;
61127;SDS011;47013;42.664;23.242;2023-09-19T02:36:47;0.35;;;0.35;;
61127;SDS011;47013;42.664;23.242;2023-09-19T02:39:12;0.93;;;0.57;;
61127;SDS011;47013;42.664;23.242;2023-09-19T02:41:38;0.90;;;0.30;;
61127;SDS011;47013;42.664;23.242;2023-09-19T02:44:03;0.50;;;0.50;;
61127;SDS011;47013;42.664;23.242;2023-09-19T02:46:32;1.10;;;0.40;;
61127;SDS011;47013;42.664;23.242;2023-09-19T02:48:58;1.08;;;0.65;;
61127;SDS011;47013;42.664;23.242;2023-09-19T02:51:23;0.15;;;0.15;;
61127;SDS011;47013;42.664;23.242;2023-09-19T02:53:50;0.30;;;0.30;;
61127;SDS011;47013;42.664;23.242;2023-09-19T02:56:17;0.50;;;0.28;;
61127;SDS011;47013;42.664;23.242;2023-09-19T02:58:43;0.50;;;0.40;;
61127;SDS011;47013;42.664;23.242;2023-09-19T03:01:09;1.02;;;0.45;;
61127;SDS011;47013;42.664;23.242;2023-09-19T03:03:38;0.45;;;0.45;;
61127;SDS011;47013;42.664;23.242;2023-09-19T03:06:05;0.22;;;0.22;;
61127;SDS011;47013;42.664;23.242;2023-09-19T03:08:33;0.05;;;0.05;;
61127;SDS011;47013;42.664;23.242;2023-09-19T03:11:03;0.10;;;0.10;;
61127;SDS011;47013;42.664;23.242;2023-09-19T03:13:31;0.28;;;0.22;;
61127;SDS011;47013;42.664;23.242;2023-09-19T03:16:01;0.08;;;0.08;;
61127;SDS011;47013;42.664;23.242;2023-09-19T03:18:30;0.32;;;0.32;;
61127;SDS011;47013;42.664;23.242;2023-09-19T03:20:56;0.30;;;0.30;;
61127;SDS011;47013;42.664;23.242;2023-09-19T03:23:25;0.20;;;0.20;;
61127;SDS011;47013;42.664;23.242;2023-09-19T03:25:51;1.27;;;0.73;;
61127;SDS011;47013;42.664;23.242;2023-09-19T03:28:17;0.10;;;0.10;;
61127;SDS011;47013;42.664;23.242;2023-09-19T03:30:43;0.10;;;0.10;;
61127;SDS011;47013;42.664;23.242;2023-09-19T03:33:09;0.25;;;0.25;;
61127;SDS011;47013;42.664;23.242;2023-09-19T03:35:37;0.70;;;0.35;;
61127;SDS011;47013;42.664;23.242;2023-09-19T03:38:03;0.63;;;0.43;;
61127;SDS011;47013;42.664;23.242;2023-09-19T03:40:29;0.43;;;0.43;;
61127;SDS011;47013;42.664;23.242;2023-09-19T03:42:55;0.90;;;0.60;;
61127;SDS011;47013;42.664;23.242;2023-09-19T03:45:20;0.10;;;0.10;;
61127;SDS011;47013;42.664;23.242;2023-09-19T03:47:46;0.40;;;0.32;;
61127;SDS011;47013;42.664;23.242;2023-09-19T03:50:14;0.30;;;0.28;;
61127;SDS011;47013;42.664;23.242;2023-09-19T03:52:42;0.20;;;0.20;;
61127;SDS011;47013;42.664;23.242;2023-09-19T03:55:10;0.52;;;0.30;;
61127;SDS011;47013;42.664;23.242;2023-09-19T03:57:36;0.65;;;0.32;;
61127;SDS011;47013;42.664;23.242;2023-09-19T04:00:05;0.25;;;0.22;;
61127;SDS011;47013;42.664;23.242;2023-09-19T04:02:36;1.48;;;1.02;;
61127;SDS011;47013;42.664;23.242;2023-09-19T04:05:02;0.68;;;0.55;;
61127;SDS011;47013;42.664;23.242;2023-09-19T04:07:28;0.80;;;0.63;;
61127;SDS011;47013;42.664;23.242;2023-09-19T04:09:54;0.45;;;0.32;;
61127;SDS011;47013;42.664;23.242;2023-09-19T04:12:20;0.20;;;0.20;;
61127;SDS011;47013;42.664;23.242;2023-09-19T04:14:45;0.45;;;0.32;;
61127;SDS011;47013;42.664;23.242;2023-09-19T04:17:10;0.63;;;0.32;;
61127;SDS011;47013;42.664;23.242;2023-09-19T04:19:36;0.00;;;0.00;;
61127;SDS011;47013;42.664;23.242;2023-09-19T04:22:02;0.00;;;0.00;;
61127;SDS011;47013;42.664;23.242;2023-09-19T04:24:28;0.90;;;0.65;;
61127;SDS011;47013;42.664;23.242;2023-09-19T04:26:54;0.25;;;0.20;;
61127;SDS011;47013;42.664;23.242;2023-09-19T04:29:19;0.43;;;0.38;;
61127;SDS011;47013;42.664;23.242;2023-09-19T04:31:45;0.55;;;0.22;;
61127;SDS011;47013;42.664;23.242;2023-09-19T04:34:11;0.28;;;0.22;;
61127;SDS011;47013;42.664;23.242;2023-09-19T04:36:42;0.10;;;0.10;;
61127;SDS011;47013;42.664;23.242;2023-09-19T04:39:08;0.25;;;0.25;;
61127;SDS011;47013;42.664;23.242;2023-09-19T04:41:35;0.28;;;0.28;;
61127;SDS011;47013;42.664;23.242;2023-09-19T04:44:04;0.90;;;0.55;;
61127;SDS011;47013;42.664;23.242;2023-09-19T04:46:30;0.20;;;0.17;;
61127;SDS011;47013;42.664;23.242;2023-09-19T04:48:55;1.08;;;0.75;;
61127;SDS011;47013;42.664;23.242;2023-09-19T04:51:20;0.00;;;0.00;;
61127;SDS011;47013;42.664;23.242;2023-09-19T04:53:46;2.33;;;0.98;;
61127;SDS011;47013;42.664;23.242;2023-09-19T04:56:12;0.40;;;0.32;;
61127;SDS011;47013;42.664;23.242;2023-09-19T04:58:38;0.20;;;0.20;;
61127;SDS011;47013;42.664;23.242;2023-09-19T05:01:03;0.40;;;0.40;;
61127;SDS011;47013;42.664;23.242;2023-09-19T05:03:29;0.10;;;0.10;;
61127;SDS011;47013;42.664;23.242;2023-09-19T05:05:54;0.43;;;0.32;;
61127;SDS011;47013;42.664;23.242;2023-09-19T05:08:20;0.10;;;0.10;;
61127;SDS011;47013;42.664;23.242;2023-09-19T05:10:47;0.65;;;0.55;;
61127;SDS011;47013;42.664;23.242;2023-09-19T05:13:13;0.75;;;0.50;;
61127;SDS011;47013;42.664;23.242;2023-09-19T05:15:39;0.38;;;0.38;;
61127;SDS011;47013;42.664;23.242;2023-09-19T05:18:05;0.85;;;0.73;;
61127;SDS011;47013;42.664;23.242;2023-09-19T05:20:31;0.98;;;0.55;;
61127;SDS011;47013;42.664;23.242;2023-09-19T05:23:03;0.70;;;0.70;;
61127;SDS011;47013;42.664;23.242;2023-09-19T05:25:32;0.10;;;0.10;;
61127;SDS011;47013;42.664;23.242;2023-09-19T05:28:02;0.50;;;0.35;;
61127;SDS011;47013;42.664;23.242;2023-09-19T05:32:56;0.85;;;0.43;;
61127;SDS011;47013;42.664;23.242;2023-09-19T05:35:22;0.60;;;0.30;;
61127;SDS011;47013;42.664;23.242;2023-09-19T05:37:48;0.75;;;0.75;;
61127;SDS011;47013;42.664;23.242;2023-09-19T05:40:16;0.82;;;0.47;;
61127;SDS011;47013;42.664;23.242;2023-09-19T05:42:45;0.17;;;0.15;;
61127;SDS011;47013;42.664;23.242;2023-09-19T05:45:11;0.47;;;0.47;;
61127;SDS011;47013;42.664;23.242;2023-09-19T05:47:37;0.52;;;0.20;;
61127;SDS011;47013;42.664;23.242;2023-09-19T05:50:03;0.30;;;0.28;;
61127;SDS011;47013;42.664;23.242;2023-09-19T05:52:30;0.15;;;0.15;;
61127;SDS011;47013;42.664;23.242;2023-09-19T05:54:55;0.17;;;0.15;;
61127;SDS011;47013;42.664;23.242;2023-09-19T05:57:21;0.82;;;0.68;;
61127;SDS011;47013;42.664;23.242;2023-09-19T05:59:47;0.50;;;0.50;;
61127;SDS011;47013;42.664;23.242;2023-09-19T06:02:15;0.68;;;0.35;;
61127;SDS011;47013;42.664;23.242;2023-09-19T06:04:41;0.70;;;0.47;;
61127;SDS011;47013;42.664;23.242;2023-09-19T06:07:06;0.40;;;0.38;;
61127;SDS011;47013;42.664;23.242;2023-09-19T06:09:32;0.68;;;0.50;;
61127;SDS011;47013;42.664;23.242;2023-09-19T06:11:57;0.40;;;0.40;;
61127;SDS011;47013;42.664;23.242;2023-09-19T06:14:23;0.35;;;0.30;;
61127;SDS011;47013;42.664;23.242;2023-09-19T06:16:49;0.70;;;0.40;;
61127;SDS011;47013;42.664;23.242;2023-09-19T06:19:15;1.08;;;0.88;;
61127;SDS011;47013;42.664;23.242;2023-09-19T06:21:40;0.43;;;0.32;;
61127;SDS011;47013;42.664;23.242;2023-09-19T06:24:06;0.20;;;0.20;;
61127;SDS011;47013;42.664;23.242;2023-09-19T06:26:31;1.02;;;0.77;;
61127;SDS011;47013;42.664;23.242;2023-09-19T06:28:57;0.32;;;0.30;;
61127;SDS011;47013;42.664;23.242;2023-09-19T06:31:24;1.83;;;0.70;;
61127;SDS011;47013;42.664;23.242;2023-09-19T06:33:51;0.35;;;0.30;;
61127;SDS011;47013;42.664;23.242;2023-09-19T06:36:17;0.75;;;0.75;;
61127;SDS011;47013;42.664;23.242;2023-09-19T06:38:44;1.25;;;0.77;;
61127;SDS011;47013;42.664;23.242;2023-09-19T06:41:09;0.50;;;0.50;;
61127;SDS011;47013;42.664;23.242;2023-09-19T06:43:35;2.35;;;0.90;;
61127;SDS011;47013;42.664;23.242;2023-09-19T06:46:01;0.98;;;0.80;;
61127;SDS011;47013;42.664;23.242;2023-09-19T06:48:27;0.57;;;0.50;;
61127;SDS011;47013;42.664;23.242;2023-09-19T06:50:54;0.82;;;0.40;;
61127;SDS011;47013;42.664;23.242;2023-09-19T06:53:20;1.27;;;1.15;;
61127;SDS011;47013;42.664;23.242;2023-09-19T06:55:48;0.90;;;0.52;;
61127;SDS011;47013;42.664;23.242;2023-09-19T06:58:15;0.68;;;0.63;;
61127;SDS011;47013;42.664;23.242;2023-09-19T07:00:41;1.42;;;0.65;;
61127;SDS011;47013;42.664;23.242;2023-09-19T07:03:07;0.70;;;0.60;;
61127;SDS011;47013;42.664;23.242;2023-09-19T07:05:36;2.15;;;0.93;;
61127;SDS011;47013;42.664;23.242;2023-09-19T07:08:04;8.20;;;1.03;;
61127;SDS011;47013;42.664;23.242;2023-09-19T07:10:31;1.17;;;0.82;;
61127;SDS011;47013;42.664;23.242;2023-09-19T07:13:04;0.60;;;0.55;;
61127;SDS011;47013;42.664;23.242;2023-09-19T07:18:07;2.63;;;1.30;;
61127;SDS011;47013;42.664;23.242;2023-09-19T07:20:35;0.65;;;0.55;;
61127;SDS011;47013;42.664;23.242;2023-09-19T07:23:02;0.50;;;0.50;;
61127;SDS011;47013;42.664;23.242;2023-09-19T07:25:27;1.20;;;0.80;;
61127;SDS011;47013;42.664;23.242;2023-09-19T07:27:57;0.85;;;0.57;;
61127;SDS011;47013;42.664;23.242;2023-09-19T07:30:26;1.58;;;1.00;;
61127;SDS011;47013;42.664;23.242;2023-09-19T07:32:52;0.57;;;0.57;;
61127;SDS011;47013;42.664;23.242;2023-09-19T07:35:18;0.63;;;0.63;;
61127;SDS011;47013;42.664;23.242;2023-09-19T07:37:47;0.30;;;0.30;;
61127;SDS011;47013;42.664;23.242;2023-09-19T07:40:19;0.30;;;0.30;;
61127;SDS011;47013;42.664;23.242;2023-09-19T07:42:45;0.82;;;0.60;;
61127;SDS011;47013;42.664;23.242;2023-09-19T07:45:14;0.98;;;0.52;;
61127;SDS011;47013;42.664;23.242;2023-09-19T07:47:49;0.98;;;0.70;;
61127;SDS011;47013;42.664;23.242;2023-09-19T07:50:15;2.00;;;0.80;;
61127;SDS011;47013;42.664;23.242;2023-09-19T07:52:45;0.80;;;0.65;;
61127;SDS011;47013;42.664;23.242;2023-09-19T07:55:11;0.70;;;0.70;;
61127;SDS011;47013;42.664;23.242;2023-09-19T07:57:44;0.52;;;0.50;;
61127;SDS011;47013;42.664;23.242;2023-09-19T08:00:11;0.73;;;0.70;;
61127;SDS011;47013;42.664;23.242;2023-09-19T08:02:37;1.10;;;0.73;;
61127;SDS011;47013;42.664;23.242;2023-09-19T08:05:06;1.00;;;0.52;;
61127;SDS011;47013;42.664;23.242;2023-09-19T08:07:45;0.93;;;0.60;;
61127;SDS011;47013;42.664;23.242;2023-09-19T08:10:14;0.95;;;0.82;;
61127;SDS011;47013;42.664;23.242;2023-09-19T08:12:41;0.80;;;0.80;;
61127;SDS011;47013;42.664;23.242;2023-09-19T08:15:17;0.57;;;0.45;;
61127;SDS011;47013;42.664;23.242;2023-09-19T08:17:46;0.85;;;0.60;;
61127;SDS011;47013;42.664;23.242;2023-09-19T08:20:15;0.70;;;0.70;;
61127;SDS011;47013;42.664;23.242;2023-09-19T08:22:50;0.85;;;0.60;;
61127;SDS011;47013;42.664;23.242;2023-09-19T08:25:20;0.90;;;0.88;;
61127;SDS011;47013;42.664;23.242;2023-09-19T08:27:47;0.95;;;0.68;;
61127;SDS011;47013;42.664;23.242;2023-09-19T08:30:23;0.40;;;0.40;;
61127;SDS011;47013;42.664;23.242;2023-09-19T08:32:49;1.40;;;0.95;;
61127;SDS011;47013;42.664;23.242;2023-09-19T08:35:32;0.47;;;0.47;;
61127;SDS011;47013;42.664;23.242;2023-09-19T08:37:58;0.98;;;0.93;;
61127;SDS011;47013;42.664;23.242;2023-09-19T08:40:32;1.30;;;1.02;;
61127;SDS011;47013;42.664;23.242;2023-09-19T08:42:58;2.47;;;1.67;;
61127;SDS011;47013;42.664;23.242;2023-09-19T08:45:26;1.00;;;0.77;;
61127;SDS011;47013;42.664;23.242;2023-09-19T08:53:27;2.33;;;1.20;;
61127;SDS011;47013;42.664;23.242;2023-09-19T08:55:57;1.67;;;1.00;;
61127;SDS011;47013;42.664;23.242;2023-09-19T08:58:27;2.15;;;0.60;;
61127;SDS011;47013;42.664;23.242;2023-09-19T09:01:00;1.65;;;0.90;;
61127;SDS011;47013;42.664;23.242;2023-09-19T09:03:26;1.33;;;1.00;;
61127;SDS011;47013;42.664;23.242;2023-09-19T09:05:54;0.95;;;0.60;;
61127;SDS011;47013;42.664;23.242;2023-09-19T09:08:20;1.50;;;1.00;;
61127;SDS011;47013;42.664;23.242;2023-09-19T09:10:50;2.15;;;1.20;;
61127;SDS011;47013;42.664;23.242;2023-09-19T09:13:16;6.32;;;1.33;;
61127;SDS011;47013;42.664;23.242;2023-09-19T09:15:45;2.10;;;1.17;;
61127;SDS011;47013;42.664;23.242;2023-09-19T09:18:10;2.35;;;0.98;;
61127;SDS011;47013;42.664;23.242;2023-09-19T09:20:36;0.70;;;0.40;;
61127;SDS011;47013;42.664;23.242;2023-09-19T09:23:02;2.03;;;1.15;;
61127;SDS011;47013;42.664;23.242;2023-09-19T09:28:21;1.25;;;0.60;;
61127;SDS011;47013;42.664;23.242;2023-09-19T09:30:49;1.65;;;1.17;;
61127;SDS011;47013;42.664;23.242;2023-09-19T09:33:17;2.95;;;1.25;;
61127;SDS011;47013;42.664;23.242;2023-09-19T09:38:21;0.95;;;0.70;;
61127;SDS011;47013;42.664;23.242;2023-09-19T09:40:56;1.15;;;0.73;;
61127;SDS011;47013;42.664;23.242;2023-09-19T09:43:35;0.60;;;0.55;;
61127;SDS011;47013;42.664;23.242;2023-09-19T09:46:07;0.73;;;0.70;;
61127;SDS011;47013;42.664;23.242;2023-09-19T09:49:07;0.73;;;0.50;;
61127;SDS011;47013;42.664;23.242;2023-09-19T09:51:50;1.10;;;0.88;;
61127;SDS011;47013;42.664;23.242;2023-09-19T09:54:32;0.95;;;0.60;;
61127;SDS011;47013;42.664;23.242;2023-09-19T09:57:01;1.27;;;0.93;;
61127;SDS011;47013;42.664;23.242;2023-09-19T10:02:45;2.20;;;0.77;;
61127;SDS011;47013;42.664;23.242;2023-09-19T10:07:38;1.45;;;0.95;;
61127;SDS011;47013;42.664;23.242;2023-09-19T10:10:06;1.20;;;0.88;;
61127;SDS011;47013;42.664;23.242;2023-09-19T10:12:42;1.35;;;0.93;;
61127;SDS011;47013;42.664;23.242;2023-09-19T10:15:20;0.88;;;0.63;;
61127;SDS011;47013;42.664;23.242;2023-09-19T10:17:46;2.00;;;1.27;;
61127;SDS011;47013;42.664;23.242;2023-09-19T10:20:13;1.92;;;0.80;;
61127;SDS011;47013;42.664;23.242;2023-09-19T10:23:03;0.35;;;0.35;;
61127;SDS011;47013;42.664;23.242;2023-09-19T10:25:34;1.50;;;0.80;;
61127;SDS011;47013;42.664;23.242;2023-09-19T10:28:08;1.65;;;1.02;;
61127;SDS011;47013;42.664;23.242;2023-09-19T10:30:40;2.28;;;1.10;;
61127;SDS011;47013;42.664;23.242;2023-09-19T10:33:13;2.10;;;0.93;;
61127;SDS011;47013;42.664;23.242;2023-09-19T10:35:43;1.17;;;0.98;;
61127;SDS011;47013;42.664;23.242;2023-09-19T10:38:10;1.23;;;1.05;;
61127;SDS011;47013;42.664;23.242;2023-09-19T10:40:37;0.68;;;0.68;;
61127;SDS011;47013;42.664;23.242;2023-09-19T10:43:08;0.98;;;0.70;;
61127;SDS011;47013;42.664;23.242;2023-09-19T10:45:37;1.05;;;0.80;;
61127;SDS011;47013;42.664;23.242;2023-09-19T10:48:06;1.40;;;0.93;;
61127;SDS011;47013;42.664;23.242;2023-09-19T10:50:33;1.92;;;1.08;;
61127;SDS011;47013;42.664;23.242;2023-09-19T10:53:20;2.38;;;0.98;;
61127;SDS011;47013;42.664;23.242;2023-09-19T10:58:24;1.15;;;0.68;;
61127;SDS011;47013;42.664;23.242;2023-09-19T11:00:54;0.80;;;0.80;;
61127;SDS011;47013;42.664;23.242;2023-09-19T11:03:27;2.15;;;1.05;;
61127;SDS011;47013;42.664;23.242;2023-09-19T11:06:11;2.65;;;1.02;;
61127;SDS011;47013;42.664;23.242;2023-09-19T11:16:39;0.98;;;0.80;;
61127;SDS011;47013;42.664;23.242;2023-09-19T11:19:41;1.08;;;0.70;;
61127;SDS011;47013;42.664;23.242;2023-09-19T11:30:38;1.27;;;0.88;;
61127;SDS011;47013;42.664;23.242;2023-09-19T11:36:04;0.88;;;0.80;;
61127;SDS011;47013;42.664;23.242;2023-09-19T11:49:16;1.67;;;0.80;;
61127;SDS011;47013;42.664;23.242;2023-09-19T11:51:46;1.48;;;1.20;;
61127;SDS011;47013;42.664;23.242;2023-09-19T11:54:13;1.80;;;1.05;;
61127;SDS011;47013;42.664;23.242;2023-09-19T11:56:43;2.70;;;1.45;;
61127;SDS011;47013;42.664;23.242;2023-09-19T11:59:10;1.05;;;0.88;;
61127;SDS011;47013;42.664;23.242;2023-09-19T12:01:35;0.93;;;0.85;;
61127;SDS011;47013;42.664;23.242;2023-09-19T12:04:11;5.88;;;1.48;;
61127;SDS011;47013;42.664;23.242;2023-09-19T12:06:37;1.13;;;0.80;;
61127;SDS011;47013;42.664;23.242;2023-09-19T12:09:07;0.85;;;0.85;;
61127;SDS011;47013;42.664;23.242;2023-09-19T12:11:41;0.70;;;0.70;;
61127;SDS011;47013;42.664;23.242;2023-09-19T12:16:34;0.65;;;0.65;;
61127;SDS011;47013;42.664;23.242;2023-09-19T12:19:20;0.80;;;0.77;;
61127;SDS011;47013;42.664;23.242;2023-09-19T12:21:56;1.00;;;0.90;;
61127;SDS011;47013;42.664;23.242;2023-09-19T12:24:23;1.42;;;0.85;;
61127;SDS011;47013;42.664;23.242;2023-09-19T12:26:51;1.17;;;0.90;;
61127;SDS011;47013;42.664;23.242;2023-09-19T12:29:18;1.50;;;0.68;;
61127;SDS011;47013;42.664;23.242;2023-09-19T12:31:54;1.08;;;0.95;;
61127;SDS011;47013;42.664;23.242;2023-09-19T12:34:31;1.60;;;1.45;;
61127;SDS011;47013;42.664;23.242;2023-09-19T12:39:47;2.17;;;1.15;;
61127;SDS011;47013;42.664;23.242;2023-09-19T12:42:24;4.03;;;1.50;;
61127;SDS011;47013;42.664;23.242;2023-09-19T12:44:57;1.42;;;0.85;;
61127;SDS011;47013;42.664;23.242;2023-09-19T12:47:25;1.00;;;0.93;;
61127;SDS011;47013;42.664;23.242;2023-09-19T12:52:54;1.60;;;1.13;;
61127;SDS011;47013;42.664;23.242;2023-09-19T12:58:29;1.13;;;1.00;;
61127;SDS011;47013;42.664;23.242;2023-09-19T13:00:43;0.55;;;0.55;;
61127;SDS011;47013;42.664;23.242;2023-09-19T13:03:27;3.38;;;1.40;;
61127;SDS011;47013;42.664;23.242;2023-09-19T13:06:01;1.42;;;0.95;;
61127;SDS011;47013;42.664;23.242;2023-09-19T13:13:26;2.03;;;1.05;;
61127;SDS011;47013;42.664;23.242;2023-09-19T13:15:53;1.63;;;1.05;;
61127;SDS011;47013;42.664;23.242;2023-09-19T13:18:19;1.00;;;0.77;;
61127;SDS011;47013;42.664;23.242;2023-09-19T13:21:05;1.33;;;1.00;;
61127;SDS011;47013;42.664;23.242;2023-09-19T13:23:31;1.88;;;1.00;;
61127;SDS011;47013;42.664;23.242;2023-09-19T13:25:57;1.98;;;1.05;;
61127;SDS011;47013;42.664;23.242;2023-09-19T13:28:22;0.90;;;0.70;;
61127;SDS011;47013;42.664;23.242;2023-09-19T13:30:52;2.33;;;1.10;;
61127;SDS011;47013;42.664;23.242;2023-09-19T13:33:19;1.63;;;1.00;;
61127;SDS011;47013;42.664;23.242;2023-09-19T13:35:46;2.20;;;1.23;;
61127;SDS011;47013;42.664;23.242;2023-09-19T13:38:13;1.15;;;0.70;;
61127;SDS011;47013;42.664;23.242;2023-09-19T13:40:38;1.05;;;0.82;;
61127;SDS011;47013;42.664;23.242;2023-09-19T13:43:04;2.35;;;1.23;;
61127;SDS011;47013;42.664;23.242;2023-09-19T13:45:31;1.08;;;0.90;;
61127;SDS011;47013;42.664;23.242;2023-09-19T13:47:57;3.58;;;1.25;;
61127;SDS011;47013;42.664;23.242;2023-09-19T13:50:26;1.55;;;0.90;;
61127;SDS011;47013;42.664;23.242;2023-09-19T13:52:54;2.05;;;0.90;;
61127;SDS011;47013;42.664;23.242;2023-09-19T13:55:22;4.53;;;1.27;;
61127;SDS011;47013;42.664;23.242;2023-09-19T14:00:17;0.80;;;0.55;;
61127;SDS011;47013;42.664;23.242;2023-09-19T14:02:43;1.23;;;0.88;;
61127;SDS011;47013;42.664;23.242;2023-09-19T14:07:40;2.15;;;0.80;;
61127;SDS011;47013;42.664;23.242;2023-09-19T14:10:06;1.00;;;0.63;;
61127;SDS011;47013;42.664;23.242;2023-09-19T14:12:33;1.77;;;0.80;;
61127;SDS011;47013;42.664;23.242;2023-09-19T14:14:59;1.52;;;0.90;;
61127;SDS011;47013;42.664;23.242;2023-09-19T14:17:25;2.03;;;0.77;;
61127;SDS011;47013;42.664;23.242;2023-09-19T14:19:51;1.73;;;1.15;;
61127;SDS011;47013;42.664;23.242;2023-09-19T14:22:17;2.90;;;1.30;;
61127;SDS011;47013;42.664;23.242;2023-09-19T14:24:44;1.95;;;0.95;;
61127;SDS011;47013;42.664;23.242;2023-09-19T14:27:10;1.98;;;1.20;;
61127;SDS011;47013;42.664;23.242;2023-09-19T14:29:36;1.60;;;1.10;;
61127;SDS011;47013;42.664;23.242;2023-09-19T14:32:01;1.80;;;1.02;;
61127;SDS011;47013;42.664;23.242;2023-09-19T14:34:27;1.70;;;0.90;;
61127;SDS011;47013;42.664;23.242;2023-09-19T14:36:53;1.30;;;0.95;;
61127;SDS011;47013;42.664;23.242;2023-09-19T14:39:22;1.35;;;1.20;;
61127;SDS011;47013;42.664;23.242;2023-09-19T14:41:48;1.02;;;0.80;;
61127;SDS011;47013;42.664;23.242;2023-09-19T14:44:14;0.98;;;0.98;;
61127;SDS011;47013;42.664;23.242;2023-09-19T14:46:43;1.10;;;0.98;;
61127;SDS011;47013;42.664;23.242;2023-09-19T14:49:10;0.98;;;0.80;;
61127;SDS011;47013;42.664;23.242;2023-09-19T14:51:37;0.68;;;0.68;;
61127;SDS011;47013;42.664;23.242;2023-09-19T14:54:04;2.10;;;1.23;;
61127;SDS011;47013;42.664;23.242;2023-09-19T14:56:35;1.63;;;1.05;;
61127;SDS011;47013;42.664;23.242;2023-09-19T14:59:00;1.17;;;0.80;;
61127;SDS011;47013;42.664;23.242;2023-09-19T15:01:26;1.48;;;1.05;;
61127;SDS011;47013;42.664;23.242;2023-09-19T15:03:51;1.65;;;1.15;;
61127;SDS011;47013;42.664;23.242;2023-09-19T15:06:19;3.10;;;1.50;;
61127;SDS011;47013;42.664;23.242;2023-09-19T15:08:47;1.60;;;1.13;;
61127;SDS011;47013;42.664;23.242;2023-09-19T15:11:13;2.45;;;0.90;;
61127;SDS011;47013;42.664;23.242;2023-09-19T15:13:42;0.70;;;0.70;;
61127;SDS011;47013;42.664;23.242;2023-09-19T15:16:11;0.65;;;0.65;;
61127;SDS011;47013;42.664;23.242;2023-09-19T15:18:38;1.50;;;0.93;;
61127;SDS011;47013;42.664;23.242;2023-09-19T15:21:07;1.52;;;1.05;;
61127;SDS011;47013;42.664;23.242;2023-09-19T15:23:35;2.55;;;1.40;;
61127;SDS011;47013;42.664;23.242;2023-09-19T15:26:05;1.50;;;1.10;;
61127;SDS011;47013;42.664;23.242;2023-09-19T15:28:32;0.80;;;0.75;;
61127;SDS011;47013;42.664;23.242;2023-09-19T15:31:03;12.18;;;1.10;;
61127;SDS011;47013;42.664;23.242;2023-09-19T15:33:31;2.60;;;1.48;;
61127;SDS011;47013;42.664;23.242;2023-09-19T15:41:26;2.35;;;1.17;;
61127;SDS011;47013;42.664;23.242;2023-09-19T15:43:56;1.58;;;1.02;;
61127;SDS011;47013;42.664;23.242;2023-09-19T15:46:24;0.75;;;0.57;;
61127;SDS011;47013;42.664;23.242;2023-09-19T15:48:52;1.42;;;1.05;;
61127;SDS011;47013;42.664;23.242;2023-09-19T15:51:17;2.28;;;1.15;;
61127;SDS011;47013;42.664;23.242;2023-09-19T15:56:14;1.73;;;1.20;;
61127;SDS011;47013;42.664;23.242;2023-09-19T15:58:42;1.77;;;1.02;;
61127;SDS011;47013;42.664;23.242;2023-09-19T16:01:09;1.33;;;0.70;;
61127;SDS011;47013;42.664;23.242;2023-09-19T16:03:35;1.40;;;1.30;;
61127;SDS011;47013;42.664;23.242;2023-09-19T16:06:02;0.70;;;0.70;;
61127;SDS011;47013;42.664;23.242;2023-09-19T16:08:33;1.63;;;1.00;;
61127;SDS011;47013;42.664;23.242;2023-09-19T16:11:02;1.00;;;0.95;;
61127;SDS011;47013;42.664;23.242;2023-09-19T16:13:28;0.70;;;0.50;;